Andalusia, PA

12:42 PM EST on December 28, 2014 (GMT -0500)
Bensalem, PA about 2 miles northeast of Philadelphia | Change Station
CLOSE
Current Station
Personal Weather Station
Location: Bensalem, PA
Elevation: 115 ft
Nearby Weather Stations

Elev 115 ft 40.12 °N, 74.96 °W | Updated 59 seconds ago

Overcast
Overcast
53.8 °F
Feels Like 53.8 °F
N
4.5
Wind Variable Wind from SW
Gusts 7.6 mph

Today
High -- | Low -- °F
--% Chance of Precip.
Yesterday
High -- | Low -- °F
Precip. -- in
7:21 AM 4:41 PM
Waxing Crescent, 49% visible
Pressure 29.94 in
Visibility 10.0 miles
Clouds Scattered Clouds 8000 ft
Mostly Cloudy 12000 ft
Dew Point 40 °F
Humidity 60%
Rainfall 0.00 in
Snow Depth Not available.
UV 1 out of 12
Pollen .10 out of 12
Air Quality Not available.
Flu Activity Not available.
METAR KPNE 281654Z AUTO 29005KT 10SM SCT080 BKN120 13/04 A2993 RMK AO2 SLP136 T01280039 TSNO

More Conditions Fewer Conditions

Pressure 29.94 in
Visibility 10.0 miles
Clouds Scattered Clouds 8000 ft
Mostly Cloudy 12000 ft
Dew Point 40 °F
Humidity 60%
Rainfall 0.00 in
Snow Depth Not available.
UV 1 out of 12
Pollen .10 out of 12
Air Quality Not available.
Flu Activity Not available.
METAR KPNE 281654Z AUTO 29005KT 10SM SCT080 BKN120 13/04 A2993 RMK AO2 SLP136 T01280039 TSNO

More Conditions Fewer Conditions

10-Day Weather Forecast

Almanac

Astronomy

Dec. 28, 2014 Rise Set
Actual Time
Civil Twilight
Nautical Twilight
Astronomical Twilight
Moon
Length of Visible Light
Length of Day
Tomorrow will be .
, % of the Moon is Illuminated

Today's Extremes

State Highs State Lows

Community

WunderPhotos

Upload Photos

1,781,367 photos uploaded!

WunderBlogs® & News

Nearby

Air Quality

  Air Quality AQ Index Pollutant
Not available.

Snow Depth

Station Depth Elevation

Earthquake Activity

City Distance Mag. Time & Date
Minimum magnitude displayed is 2.5.

Coastal Water Temperatures

Place Temperature

Nearby Weather Stations